sensor_id;sensor_type;location;lat;lon;timestamp;P1;durP1;ratioP1;P2;durP2;ratioP2
9496;SDS011;4786;51.270;4.456;2023-05-07T00:00:45;8.07;;;7.27;;
9496;SDS011;4786;51.270;4.456;2023-05-07T00:03:11;8.20;;;7.50;;
9496;SDS011;4786;51.270;4.456;2023-05-07T00:05:38;7.73;;;7.03;;
9496;SDS011;4786;51.270;4.456;2023-05-07T00:08:04;7.33;;;6.67;;
9496;SDS011;4786;51.270;4.456;2023-05-07T00:10:30;9.43;;;6.77;;
9496;SDS011;4786;51.270;4.456;2023-05-07T00:12:56;10.50;;;7.10;;
9496;SDS011;4786;51.270;4.456;2023-05-07T00:15:22;8.77;;;6.90;;
9496;SDS011;4786;51.270;4.456;2023-05-07T00:17:48;7.87;;;6.63;;
9496;SDS011;4786;51.270;4.456;2023-05-07T00:20:14;8.93;;;6.07;;
9496;SDS011;4786;51.270;4.456;2023-05-07T00:22:39;8.33;;;7.43;;
9496;SDS011;4786;51.270;4.456;2023-05-07T00:25:05;8.07;;;6.87;;
9496;SDS011;4786;51.270;4.456;2023-05-07T00:27:32;7.50;;;6.30;;
9496;SDS011;4786;51.270;4.456;2023-05-07T00:29:58;7.63;;;6.90;;
9496;SDS011;4786;51.270;4.456;2023-05-07T00:32:24;7.07;;;6.23;;
9496;SDS011;4786;51.270;4.456;2023-05-07T00:34:50;8.47;;;6.23;;
9496;SDS011;4786;51.270;4.456;2023-05-07T00:37:16;6.73;;;6.10;;
9496;SDS011;4786;51.270;4.456;2023-05-07T00:39:41;8.67;;;6.47;;
9496;SDS011;4786;51.270;4.456;2023-05-07T00:42:07;6.80;;;6.20;;
9496;SDS011;4786;51.270;4.456;2023-05-07T00:44:33;6.53;;;5.93;;
9496;SDS011;4786;51.270;4.456;2023-05-07T00:47:00;7.30;;;6.60;;
9496;SDS011;4786;51.270;4.456;2023-05-07T00:52:13;7.87;;;6.80;;
9496;SDS011;4786;51.270;4.456;2023-05-07T00:54:41;8.00;;;7.20;;
9496;SDS011;4786;51.270;4.456;2023-05-07T00:57:07;7.00;;;6.23;;
9496;SDS011;4786;51.270;4.456;2023-05-07T00:59:37;7.00;;;6.30;;
9496;SDS011;4786;51.270;4.456;2023-05-07T01:02:03;7.30;;;6.13;;
9496;SDS011;4786;51.270;4.456;2023-05-07T01:04:29;7.00;;;6.33;;
9496;SDS011;4786;51.270;4.456;2023-05-07T01:06:56;8.17;;;6.60;;
9496;SDS011;4786;51.270;4.456;2023-05-07T01:09:24;7.87;;;6.77;;
9496;SDS011;4786;51.270;4.456;2023-05-07T01:11:50;6.93;;;6.27;;
9496;SDS011;4786;51.270;4.456;2023-05-07T01:14:18;8.03;;;7.00;;
9496;SDS011;4786;51.270;4.456;2023-05-07T01:16:46;10.00;;;7.13;;
9496;SDS011;4786;51.270;4.456;2023-05-07T01:19:16;7.67;;;6.90;;
9496;SDS011;4786;51.270;4.456;2023-05-07T01:21:44;8.93;;;7.13;;
9496;SDS011;4786;51.270;4.456;2023-05-07T01:24:12;10.53;;;6.80;;
9496;SDS011;4786;51.270;4.456;2023-05-07T01:26:39;7.67;;;6.97;;
9496;SDS011;4786;51.270;4.456;2023-05-07T01:29:05;7.13;;;6.43;;
9496;SDS011;4786;51.270;4.456;2023-05-07T01:31:32;8.10;;;7.40;;
9496;SDS011;4786;51.270;4.456;2023-05-07T01:33:59;7.97;;;6.23;;
9496;SDS011;4786;51.270;4.456;2023-05-07T01:36:26;7.53;;;6.70;;
9496;SDS011;4786;51.270;4.456;2023-05-07T01:38:55;7.93;;;7.13;;
9496;SDS011;4786;51.270;4.456;2023-05-07T01:41:22;7.23;;;6.50;;
9496;SDS011;4786;51.270;4.456;2023-05-07T01:43:49;8.03;;;6.50;;
9496;SDS011;4786;51.270;4.456;2023-05-07T01:46:17;7.20;;;6.50;;
9496;SDS011;4786;51.270;4.456;2023-05-07T01:48:45;7.80;;;6.13;;
9496;SDS011;4786;51.270;4.456;2023-05-07T01:51:11;7.13;;;6.50;;
9496;SDS011;4786;51.270;4.456;2023-05-07T01:53:38;7.30;;;6.60;;
9496;SDS011;4786;51.270;4.456;2023-05-07T01:56:05;7.57;;;6.77;;
9496;SDS011;4786;51.270;4.456;2023-05-07T01:58:32;7.77;;;6.93;;
9496;SDS011;4786;51.270;4.456;2023-05-07T02:00:58;7.40;;;6.70;;
9496;SDS011;4786;51.270;4.456;2023-05-07T02:03:24;7.20;;;6.60;;
9496;SDS011;4786;51.270;4.456;2023-05-07T02:05:50;7.97;;;7.27;;
9496;SDS011;4786;51.270;4.456;2023-05-07T02:08:15;7.30;;;6.50;;
9496;SDS011;4786;51.270;4.456;2023-05-07T02:10:41;7.10;;;6.40;;
9496;SDS011;4786;51.270;4.456;2023-05-07T02:13:07;8.70;;;7.77;;
9496;SDS011;4786;51.270;4.456;2023-05-07T02:15:33;7.27;;;6.67;;
9496;SDS011;4786;51.270;4.456;2023-05-07T02:20:26;7.80;;;7.00;;
9496;SDS011;4786;51.270;4.456;2023-05-07T02:22:53;7.37;;;6.77;;
9496;SDS011;4786;51.270;4.456;2023-05-07T02:25:19;7.17;;;6.57;;
9496;SDS011;4786;51.270;4.456;2023-05-07T02:27:45;7.43;;;6.73;;
9496;SDS011;4786;51.270;4.456;2023-05-07T02:30:11;7.70;;;7.00;;
9496;SDS011;4786;51.270;4.456;2023-05-07T02:32:38;7.57;;;6.87;;
9496;SDS011;4786;51.270;4.456;2023-05-07T02:35:04;7.07;;;6.37;;
9496;SDS011;4786;51.270;4.456;2023-05-07T02:37:30;7.63;;;6.97;;
9496;SDS011;4786;51.270;4.456;2023-05-07T02:39:56;7.87;;;7.20;;
9496;SDS011;4786;51.270;4.456;2023-05-07T02:42:22;9.03;;;7.17;;
9496;SDS011;4786;51.270;4.456;2023-05-07T02:44:48;7.60;;;6.90;;
9496;SDS011;4786;51.270;4.456;2023-05-07T02:47:14;6.10;;;5.53;;
9496;SDS011;4786;51.270;4.456;2023-05-07T02:49:40;6.87;;;5.80;;
9496;SDS011;4786;51.270;4.456;2023-05-07T02:52:07;7.43;;;5.80;;
9496;SDS011;4786;51.270;4.456;2023-05-07T02:54:33;8.47;;;7.03;;
9496;SDS011;4786;51.270;4.456;2023-05-07T02:56:59;6.00;;;5.50;;
9496;SDS011;4786;51.270;4.456;2023-05-07T02:59:26;5.67;;;5.17;;
9496;SDS011;4786;51.270;4.456;2023-05-07T03:01:52;6.00;;;5.40;;
9496;SDS011;4786;51.270;4.456;2023-05-07T03:04:17;7.00;;;5.93;;
9496;SDS011;4786;51.270;4.456;2023-05-07T03:06:44;6.23;;;5.63;;
9496;SDS011;4786;51.270;4.456;2023-05-07T03:09:10;6.10;;;5.60;;
9496;SDS011;4786;51.270;4.456;2023-05-07T03:11:35;6.50;;;5.97;;
9496;SDS011;4786;51.270;4.456;2023-05-07T03:14:02;6.10;;;5.60;;
9496;SDS011;4786;51.270;4.456;2023-05-07T03:16:28;6.10;;;5.50;;
9496;SDS011;4786;51.270;4.456;2023-05-07T03:18:54;6.03;;;5.53;;
9496;SDS011;4786;51.270;4.456;2023-05-07T03:21:20;6.83;;;6.17;;
9496;SDS011;4786;51.270;4.456;2023-05-07T03:23:46;6.30;;;5.70;;
9496;SDS011;4786;51.270;4.456;2023-05-07T03:26:12;6.43;;;5.90;;
9496;SDS011;4786;51.270;4.456;2023-05-07T03:28:38;6.50;;;6.00;;
9496;SDS011;4786;51.270;4.456;2023-05-07T03:31:03;6.10;;;5.60;;
9496;SDS011;4786;51.270;4.456;2023-05-07T03:33:32;7.47;;;6.20;;
9496;SDS011;4786;51.270;4.456;2023-05-07T03:35:59;6.37;;;5.87;;
9496;SDS011;4786;51.270;4.456;2023-05-07T03:38:25;6.77;;;6.23;;
9496;SDS011;4786;51.270;4.456;2023-05-07T03:40:51;7.80;;;7.13;;
9496;SDS011;4786;51.270;4.456;2023-05-07T03:43:17;8.20;;;6.93;;
9496;SDS011;4786;51.270;4.456;2023-05-07T03:45:43;8.03;;;7.33;;
9496;SDS011;4786;51.270;4.456;2023-05-07T03:48:09;7.50;;;6.90;;
9496;SDS011;4786;51.270;4.456;2023-05-07T03:50:36;7.07;;;6.40;;
9496;SDS011;4786;51.270;4.456;2023-05-07T03:53:02;7.93;;;7.23;;
9496;SDS011;4786;51.270;4.456;2023-05-07T03:55:28;7.83;;;7.13;;
9496;SDS011;4786;51.270;4.456;2023-05-07T03:57:55;7.77;;;6.90;;
9496;SDS011;4786;51.270;4.456;2023-05-07T04:00:21;7.73;;;7.00;;
9496;SDS011;4786;51.270;4.456;2023-05-07T04:02:47;8.27;;;7.37;;
9496;SDS011;4786;51.270;4.456;2023-05-07T04:05:14;8.20;;;7.50;;
9496;SDS011;4786;51.270;4.456;2023-05-07T04:07:40;7.40;;;6.80;;
9496;SDS011;4786;51.270;4.456;2023-05-07T04:10:06;9.40;;;8.50;;
9496;SDS011;4786;51.270;4.456;2023-05-07T04:12:33;10.77;;;7.50;;
9496;SDS011;4786;51.270;4.456;2023-05-07T04:14:59;9.33;;;8.20;;
9496;SDS011;4786;51.270;4.456;2023-05-07T04:17:24;7.67;;;6.97;;
9496;SDS011;4786;51.270;4.456;2023-05-07T04:19:50;8.23;;;7.50;;
9496;SDS011;4786;51.270;4.456;2023-05-07T04:22:16;8.53;;;7.67;;
9496;SDS011;4786;51.270;4.456;2023-05-07T04:24:42;9.23;;;8.53;;
9496;SDS011;4786;51.270;4.456;2023-05-07T04:27:07;8.47;;;7.70;;
9496;SDS011;4786;51.270;4.456;2023-05-07T04:29:33;8.20;;;7.40;;
9496;SDS011;4786;51.270;4.456;2023-05-07T04:32:00;8.40;;;7.63;;
9496;SDS011;4786;51.270;4.456;2023-05-07T04:34:25;8.37;;;7.70;;
9496;SDS011;4786;51.270;4.456;2023-05-07T04:36:51;8.17;;;7.47;;
9496;SDS011;4786;51.270;4.456;2023-05-07T04:39:17;8.63;;;7.97;;
9496;SDS011;4786;51.270;4.456;2023-05-07T04:41:42;7.97;;;7.27;;
9496;SDS011;4786;51.270;4.456;2023-05-07T04:44:09;8.47;;;7.77;;
9496;SDS011;4786;51.270;4.456;2023-05-07T04:46:34;7.93;;;7.23;;
9496;SDS011;4786;51.270;4.456;2023-05-07T04:49:00;8.23;;;7.37;;
9496;SDS011;4786;51.270;4.456;2023-05-07T04:51:26;7.20;;;6.50;;
9496;SDS011;4786;51.270;4.456;2023-05-07T04:53:52;7.13;;;6.50;;
9496;SDS011;4786;51.270;4.456;2023-05-07T04:56:19;7.50;;;6.90;;
9496;SDS011;4786;51.270;4.456;2023-05-07T04:58:45;7.33;;;6.70;;
9496;SDS011;4786;51.270;4.456;2023-05-07T05:01:11;7.27;;;6.67;;
9496;SDS011;4786;51.270;4.456;2023-05-07T05:03:37;9.20;;;8.23;;
9496;SDS011;4786;51.270;4.456;2023-05-07T05:06:04;8.70;;;7.10;;
9496;SDS011;4786;51.270;4.456;2023-05-07T05:08:30;8.17;;;7.47;;
9496;SDS011;4786;51.270;4.456;2023-05-07T05:10:56;9.03;;;8.23;;
9496;SDS011;4786;51.270;4.456;2023-05-07T05:13:22;8.73;;;7.80;;
9496;SDS011;4786;51.270;4.456;2023-05-07T05:15:48;8.50;;;7.80;;
9496;SDS011;4786;51.270;4.456;2023-05-07T05:18:15;7.37;;;6.73;;
9496;SDS011;4786;51.270;4.456;2023-05-07T05:20:40;8.10;;;7.40;;
9496;SDS011;4786;51.270;4.456;2023-05-07T05:23:07;7.77;;;7.17;;
9496;SDS011;4786;51.270;4.456;2023-05-07T05:25:33;8.00;;;7.30;;
9496;SDS011;4786;51.270;4.456;2023-05-07T05:27:59;8.00;;;7.30;;
9496;SDS011;4786;51.270;4.456;2023-05-07T05:30:24;8.77;;;8.00;;
9496;SDS011;4786;51.270;4.456;2023-05-07T05:32:50;7.20;;;6.60;;
9496;SDS011;4786;51.270;4.456;2023-05-07T05:35:16;7.10;;;6.60;;
9496;SDS011;4786;51.270;4.456;2023-05-07T05:37:42;7.60;;;6.90;;
9496;SDS011;4786;51.270;4.456;2023-05-07T05:40:08;8.03;;;7.33;;
9496;SDS011;4786;51.270;4.456;2023-05-07T05:42:34;8.10;;;7.30;;
9496;SDS011;4786;51.270;4.456;2023-05-07T05:45:00;8.17;;;7.47;;
9496;SDS011;4786;51.270;4.456;2023-05-07T05:47:25;7.93;;;7.10;;
9496;SDS011;4786;51.270;4.456;2023-05-07T05:49:52;7.93;;;7.23;;
9496;SDS011;4786;51.270;4.456;2023-05-07T05:52:17;6.80;;;6.30;;
9496;SDS011;4786;51.270;4.456;2023-05-07T05:54:44;9.10;;;8.20;;
9496;SDS011;4786;51.270;4.456;2023-05-07T05:57:10;7.70;;;7.00;;
9496;SDS011;4786;51.270;4.456;2023-05-07T05:59:36;7.90;;;7.17;;
9496;SDS011;4786;51.270;4.456;2023-05-07T06:02:02;8.07;;;7.37;;
9496;SDS011;4786;51.270;4.456;2023-05-07T06:04:28;9.10;;;8.30;;
9496;SDS011;4786;51.270;4.456;2023-05-07T06:06:54;7.87;;;7.07;;
9496;SDS011;4786;51.270;4.456;2023-05-07T06:09:19;8.83;;;8.13;;
9496;SDS011;4786;51.270;4.456;2023-05-07T06:11:45;9.40;;;8.60;;
9496;SDS011;4786;51.270;4.456;2023-05-07T06:14:11;9.10;;;8.30;;
9496;SDS011;4786;51.270;4.456;2023-05-07T06:16:37;8.87;;;7.97;;
9496;SDS011;4786;51.270;4.456;2023-05-07T06:19:03;9.27;;;8.53;;
9496;SDS011;4786;51.270;4.456;2023-05-07T06:21:29;11.33;;;10.30;;
9496;SDS011;4786;51.270;4.456;2023-05-07T06:23:55;8.83;;;7.97;;
9496;SDS011;4786;51.270;4.456;2023-05-07T06:26:21;9.30;;;8.50;;
9496;SDS011;4786;51.270;4.456;2023-05-07T06:28:47;10.27;;;9.30;;
9496;SDS011;4786;51.270;4.456;2023-05-07T06:31:17;9.43;;;8.53;;
9496;SDS011;4786;51.270;4.456;2023-05-07T06:33:47;9.33;;;8.60;;
9496;SDS011;4786;51.270;4.456;2023-05-07T06:36:14;8.83;;;8.13;;
9496;SDS011;4786;51.270;4.456;2023-05-07T06:38:39;9.60;;;8.80;;
9496;SDS011;4786;51.270;4.456;2023-05-07T06:41:05;8.70;;;8.00;;
9496;SDS011;4786;51.270;4.456;2023-05-07T06:43:31;9.13;;;8.33;;
9496;SDS011;4786;51.270;4.456;2023-05-07T06:45:58;8.73;;;8.03;;
9496;SDS011;4786;51.270;4.456;2023-05-07T06:48:23;10.37;;;9.30;;
9496;SDS011;4786;51.270;4.456;2023-05-07T06:50:50;10.03;;;9.13;;
9496;SDS011;4786;51.270;4.456;2023-05-07T06:53:15;9.10;;;8.20;;
9496;SDS011;4786;51.270;4.456;2023-05-07T06:55:41;9.93;;;8.90;;
9496;SDS011;4786;51.270;4.456;2023-05-07T06:58:07;9.27;;;8.43;;
9496;SDS011;4786;51.270;4.456;2023-05-07T07:00:33;9.53;;;8.70;;
9496;SDS011;4786;51.270;4.456;2023-05-07T07:02:59;10.27;;;8.70;;
9496;SDS011;4786;51.270;4.456;2023-05-07T07:05:26;10.10;;;9.13;;
9496;SDS011;4786;51.270;4.456;2023-05-07T07:07:52;10.17;;;9.27;;
9496;SDS011;4786;51.270;4.456;2023-05-07T07:10:19;9.00;;;8.10;;
9496;SDS011;4786;51.270;4.456;2023-05-07T07:12:45;10.37;;;9.30;;
9496;SDS011;4786;51.270;4.456;2023-05-07T07:15:11;9.43;;;8.43;;
9496;SDS011;4786;51.270;4.456;2023-05-07T07:17:37;10.63;;;9.70;;
9496;SDS011;4786;51.270;4.456;2023-05-07T07:20:03;10.03;;;9.13;;
9496;SDS011;4786;51.270;4.456;2023-05-07T07:22:29;10.17;;;9.27;;
9496;SDS011;4786;51.270;4.456;2023-05-07T07:24:55;9.73;;;8.93;;
9496;SDS011;4786;51.270;4.456;2023-05-07T07:27:21;10.27;;;9.37;;
9496;SDS011;4786;51.270;4.456;2023-05-07T07:29:47;9.33;;;8.50;;
9496;SDS011;4786;51.270;4.456;2023-05-07T07:32:13;10.60;;;9.67;;
9496;SDS011;4786;51.270;4.456;2023-05-07T07:34:39;10.47;;;9.57;;
9496;SDS011;4786;51.270;4.456;2023-05-07T07:37:05;10.33;;;9.37;;
9496;SDS011;4786;51.270;4.456;2023-05-07T07:39:32;10.93;;;10.03;;
9496;SDS011;4786;51.270;4.456;2023-05-07T07:41:58;13.87;;;10.37;;
9496;SDS011;4786;51.270;4.456;2023-05-07T07:44:24;9.70;;;8.70;;
9496;SDS011;4786;51.270;4.456;2023-05-07T07:46:51;10.67;;;9.67;;
9496;SDS011;4786;51.270;4.456;2023-05-07T07:49:17;11.37;;;10.37;;
9496;SDS011;4786;51.270;4.456;2023-05-07T07:51:43;11.20;;;10.20;;
9496;SDS011;4786;51.270;4.456;2023-05-07T07:54:08;11.57;;;10.37;;
9496;SDS011;4786;51.270;4.456;2023-05-07T07:56:34;10.43;;;9.40;;
9496;SDS011;4786;51.270;4.456;2023-05-07T07:59:00;9.87;;;8.97;;
9496;SDS011;4786;51.270;4.456;2023-05-07T08:01:26;10.13;;;9.07;;
9496;SDS011;4786;51.270;4.456;2023-05-07T08:03:54;9.77;;;8.83;;
9496;SDS011;4786;51.270;4.456;2023-05-07T08:06:21;11.07;;;9.87;;
9496;SDS011;4786;51.270;4.456;2023-05-07T08:08:47;15.17;;;9.43;;
9496;SDS011;4786;51.270;4.456;2023-05-07T08:11:12;12.40;;;10.60;;
9496;SDS011;4786;51.270;4.456;2023-05-07T08:13:38;9.27;;;8.33;;
9496;SDS011;4786;51.270;4.456;2023-05-07T08:16:05;9.43;;;8.43;;
9496;SDS011;4786;51.270;4.456;2023-05-07T08:18:31;8.43;;;7.57;;
9496;SDS011;4786;51.270;4.456;2023-05-07T08:20:57;9.87;;;7.87;;
9496;SDS011;4786;51.270;4.456;2023-05-07T08:23:22;8.97;;;7.30;;
9496;SDS011;4786;51.270;4.456;2023-05-07T08:25:51;10.07;;;8.13;;
9496;SDS011;4786;51.270;4.456;2023-05-07T08:28:18;9.63;;;8.10;;
9496;SDS011;4786;51.270;4.456;2023-05-07T08:30:45;11.33;;;8.23;;
9496;SDS011;4786;51.270;4.456;2023-05-07T08:33:11;11.33;;;8.70;;
9496;SDS011;4786;51.270;4.456;2023-05-07T08:35:37;11.77;;;9.50;;
9496;SDS011;4786;51.270;4.456;2023-05-07T08:38:03;12.00;;;8.67;;
9496;SDS011;4786;51.270;4.456;2023-05-07T08:40:29;11.80;;;8.90;;
9496;SDS011;4786;51.270;4.456;2023-05-07T08:43:01;12.48;;;8.82;;
9496;SDS011;4786;51.270;4.456;2023-05-07T08:45:28;11.63;;;10.23;;
9496;SDS011;4786;51.270;4.456;2023-05-07T08:47:59;12.47;;;9.70;;
9496;SDS011;4786;51.270;4.456;2023-05-07T08:50:26;12.98;;;9.75;;
9496;SDS011;4786;51.270;4.456;2023-05-07T08:52:53;11.07;;;9.00;;
9496;SDS011;4786;51.270;4.456;2023-05-07T08:55:19;11.87;;;8.47;;
9496;SDS011;4786;51.270;4.456;2023-05-07T08:57:46;11.03;;;8.50;;
9496;SDS011;4786;51.270;4.456;2023-05-07T09:00:13;9.97;;;8.93;;
9496;SDS011;4786;51.270;4.456;2023-05-07T09:02:39;11.03;;;8.50;;
9496;SDS011;4786;51.270;4.456;2023-05-07T09:05:05;11.87;;;8.20;;
9496;SDS011;4786;51.270;4.456;2023-05-07T09:07:32;8.33;;;7.37;;
9496;SDS011;4786;51.270;4.456;2023-05-07T09:09:58;10.57;;;7.83;;
9496;SDS011;4786;51.270;4.456;2023-05-07T09:12:27;9.27;;;7.37;;
9496;SDS011;4786;51.270;4.456;2023-05-07T09:14:53;9.67;;;7.77;;
9496;SDS011;4786;51.270;4.456;2023-05-07T09:17:19;12.07;;;7.73;;
9496;SDS011;4786;51.270;4.456;2023-05-07T09:19:46;10.07;;;7.20;;
9496;SDS011;4786;51.270;4.456;2023-05-07T09:22:12;10.10;;;8.00;;
9496;SDS011;4786;51.270;4.456;2023-05-07T09:24:38;10.65;;;8.70;;
9496;SDS011;4786;51.270;4.456;2023-05-07T09:27:05;10.75;;;8.35;;
9496;SDS011;4786;51.270;4.456;2023-05-07T09:29:31;10.93;;;8.13;;
9496;SDS011;4786;51.270;4.456;2023-05-07T09:32:03;8.45;;;7.30;;
9496;SDS011;4786;51.270;4.456;2023-05-07T09:34:31;9.20;;;8.00;;
9496;SDS011;4786;51.270;4.456;2023-05-07T09:37:00;10.27;;;7.33;;
9496;SDS011;4786;51.270;4.456;2023-05-07T09:39:38;12.23;;;8.35;;
9496;SDS011;4786;51.270;4.456;2023-05-07T09:42:07;12.20;;;8.60;;
9496;SDS011;4786;51.270;4.456;2023-05-07T09:44:34;12.23;;;8.48;;
9496;SDS011;4786;51.270;4.456;2023-05-07T09:47:00;11.35;;;8.13;;
9496;SDS011;4786;51.270;4.456;2023-05-07T09:49:29;7.90;;;7.00;;
9496;SDS011;4786;51.270;4.456;2023-05-07T09:51:58;10.73;;;7.85;;
9496;SDS011;4786;51.270;4.456;2023-05-07T09:54:25;9.73;;;7.77;;
9496;SDS011;4786;51.270;4.456;2023-05-07T09:56:53;9.10;;;7.80;;
9496;SDS011;4786;51.270;4.456;2023-05-07T09:59:20;11.30;;;8.73;;
9496;SDS011;4786;51.270;4.456;2023-05-07T10:01:47;12.83;;;8.73;;
9496;SDS011;4786;51.270;4.456;2023-05-07T10:04:14;10.53;;;8.10;;
9496;SDS011;4786;51.270;4.456;2023-05-07T10:06:41;11.50;;;8.20;;
9496;SDS011;4786;51.270;4.456;2023-05-07T10:09:09;15.17;;;9.20;;
9496;SDS011;4786;51.270;4.456;2023-05-07T10:11:36;11.77;;;7.90;;
9496;SDS011;4786;51.270;4.456;2023-05-07T10:14:02;9.80;;;7.77;;
9496;SDS011;4786;51.270;4.456;2023-05-07T10:16:31;7.70;;;6.90;;
9496;SDS011;4786;51.270;4.456;2023-05-07T10:19:01;11.82;;;8.32;;
9496;SDS011;4786;51.270;4.456;2023-05-07T10:21:35;11.27;;;8.80;;
9496;SDS011;4786;51.270;4.456;2023-05-07T10:26:40;11.53;;;8.70;;
9496;SDS011;4786;51.270;4.456;2023-05-07T10:29:13;10.07;;;7.07;;
9496;SDS011;4786;51.270;4.456;2023-05-07T10:34:32;10.70;;;7.57;;
9496;SDS011;4786;51.270;4.456;2023-05-07T10:37:06;10.10;;;7.65;;
9496;SDS011;4786;51.270;4.456;2023-05-07T10:39:32;9.23;;;7.53;;
9496;SDS011;4786;51.270;4.456;2023-05-07T10:42:09;9.17;;;8.23;;
9496;SDS011;4786;51.270;4.456;2023-05-07T10:44:37;9.32;;;8.15;;
9496;SDS011;4786;51.270;4.456;2023-05-07T10:47:13;11.57;;;8.50;;
9496;SDS011;4786;51.270;4.456;2023-05-07T10:54:46;10.02;;;7.18;;
9496;SDS011;4786;51.270;4.456;2023-05-07T10:59:57;12.55;;;8.57;;
9496;SDS011;4786;51.270;4.456;2023-05-07T11:02:24;11.18;;;8.57;;
9496;SDS011;4786;51.270;4.456;2023-05-07T11:05:24;15.67;;;8.70;;
9496;SDS011;4786;51.270;4.456;2023-05-07T11:07:54;16.37;;;11.83;;
9496;SDS011;4786;51.270;4.456;2023-05-07T11:10:21;12.03;;;7.90;;
9496;SDS011;4786;51.270;4.456;2023-05-07T11:12:47;10.80;;;9.30;;
9496;SDS011;4786;51.270;4.456;2023-05-07T11:15:14;10.73;;;6.77;;
9496;SDS011;4786;51.270;4.456;2023-05-07T11:17:57;12.73;;;7.97;;
9496;SDS011;4786;51.270;4.456;2023-05-07T11:26:02;8.30;;;7.03;;
9496;SDS011;4786;51.270;4.456;2023-05-07T11:28:42;10.65;;;7.03;;
9496;SDS011;4786;51.270;4.456;2023-05-07T11:31:08;5.60;;;3.30;;
9496;SDS011;4786;51.270;4.456;2023-05-07T11:33:35;4.32;;;3.08;;
9496;SDS011;4786;51.270;4.456;2023-05-07T11:36:03;7.35;;;3.45;;
9496;SDS011;4786;51.270;4.456;2023-05-07T11:38:30;6.10;;;4.93;;
9496;SDS011;4786;51.270;4.456;2023-05-07T11:41:00;8.07;;;6.18;;
9496;SDS011;4786;51.270;4.456;2023-05-07T11:43:26;7.03;;;5.70;;
9496;SDS011;4786;51.270;4.456;2023-05-07T11:45:53;7.28;;;5.55;;
9496;SDS011;4786;51.270;4.456;2023-05-07T11:48:19;8.43;;;6.63;;
9496;SDS011;4786;51.270;4.456;2023-05-07T11:50:50;10.88;;;8.10;;
9496;SDS011;4786;51.270;4.456;2023-05-07T11:53:17;8.70;;;7.38;;
9496;SDS011;4786;51.270;4.456;2023-05-07T11:55:44;9.07;;;7.70;;
9496;SDS011;4786;51.270;4.456;2023-05-07T11:58:12;10.10;;;7.35;;
9496;SDS011;4786;51.270;4.456;2023-05-07T12:00:52;9.25;;;6.88;;
9496;SDS011;4786;51.270;4.456;2023-05-07T12:03:19;6.18;;;5.57;;
9496;SDS011;4786;51.270;4.456;2023-05-07T12:05:46;7.50;;;5.45;;
9496;SDS011;4786;51.270;4.456;2023-05-07T12:08:17;9.45;;;5.15;;
9496;SDS011;4786;51.270;4.456;2023-05-07T12:10:44;6.95;;;4.45;;
9496;SDS011;4786;51.270;4.456;2023-05-07T12:15:50;5.78;;;3.97;;
9496;SDS011;4786;51.270;4.456;2023-05-07T12:18:17;7.38;;;4.32;;
9496;SDS011;4786;51.270;4.456;2023-05-07T12:20:44;8.95;;;3.80;;
9496;SDS011;4786;51.270;4.456;2023-05-07T12:23:10;8.20;;;4.47;;
9496;SDS011;4786;51.270;4.456;2023-05-07T12:25:38;8.63;;;4.55;;
9496;SDS011;4786;51.270;4.456;2023-05-07T12:28:07;6.78;;;4.82;;
9496;SDS011;4786;51.270;4.456;2023-05-07T12:30:36;7.63;;;4.40;;
9496;SDS011;4786;51.270;4.456;2023-05-07T12:33:03;7.72;;;5.22;;
9496;SDS011;4786;51.270;4.456;2023-05-07T12:35:32;8.13;;;4.45;;
9496;SDS011;4786;51.270;4.456;2023-05-07T12:38:11;6.32;;;4.63;;
9496;SDS011;4786;51.270;4.456;2023-05-07T12:40:46;8.82;;;5.20;;
9496;SDS011;4786;51.270;4.456;2023-05-07T12:43:25;6.07;;;4.72;;
9496;SDS011;4786;51.270;4.456;2023-05-07T12:45:53;6.43;;;4.60;;
9496;SDS011;4786;51.270;4.456;2023-05-07T12:48:22;7.13;;;4.00;;
9496;SDS011;4786;51.270;4.456;2023-05-07T12:50:52;5.97;;;4.70;;
9496;SDS011;4786;51.270;4.456;2023-05-07T12:53:20;5.57;;;4.88;;
9496;SDS011;4786;51.270;4.456;2023-05-07T12:55:48;6.78;;;5.70;;
9496;SDS011;4786;51.270;4.456;2023-05-07T12:58:16;4.85;;;3.95;;
9496;SDS011;4786;51.270;4.456;2023-05-07T13:00:50;4.75;;;3.58;;
9496;SDS011;4786;51.270;4.456;2023-05-07T13:03:35;8.02;;;4.38;;
9496;SDS011;4786;51.270;4.456;2023-05-07T13:06:06;7.53;;;4.72;;
9496;SDS011;4786;51.270;4.456;2023-05-07T13:08:38;9.05;;;4.35;;
9496;SDS011;4786;51.270;4.456;2023-05-07T13:11:08;5.95;;;4.30;;
9496;SDS011;4786;51.270;4.456;2023-05-07T13:13:35;6.40;;;4.10;;
9496;SDS011;4786;51.270;4.456;2023-05-07T13:16:02;6.53;;;3.63;;
9496;SDS011;4786;51.270;4.456;2023-05-07T13:18:30;5.18;;;3.88;;
9496;SDS011;4786;51.270;4.456;2023-05-07T13:20:57;5.47;;;3.60;;
9496;SDS011;4786;51.270;4.456;2023-05-07T13:23:23;4.13;;;3.00;;
9496;SDS011;4786;51.270;4.456;2023-05-07T13:25:48;4.57;;;3.00;;
9496;SDS011;4786;51.270;4.456;2023-05-07T13:28:15;4.07;;;2.70;;
9496;SDS011;4786;51.270;4.456;2023-05-07T13:30:41;4.43;;;3.03;;
9496;SDS011;4786;51.270;4.456;2023-05-07T13:33:07;5.85;;;2.97;;
9496;SDS011;4786;51.270;4.456;2023-05-07T13:35:34;3.85;;;2.80;;
9496;SDS011;4786;51.270;4.456;2023-05-07T13:38:00;5.00;;;2.60;;
9496;SDS011;4786;51.270;4.456;2023-05-07T13:40:26;4.40;;;3.00;;
9496;SDS011;4786;51.270;4.456;2023-05-07T13:42:52;3.83;;;2.65;;
9496;SDS011;4786;51.270;4.456;2023-05-07T13:45:18;4.30;;;2.63;;
9496;SDS011;4786;51.270;4.456;2023-05-07T13:47:45;4.88;;;2.90;;
9496;SDS011;4786;51.270;4.456;2023-05-07T13:50:11;5.63;;;2.70;;
9496;SDS011;4786;51.270;4.456;2023-05-07T13:52:41;3.95;;;2.60;;
9496;SDS011;4786;51.270;4.456;2023-05-07T13:55:09;4.68;;;2.40;;
9496;SDS011;4786;51.270;4.456;2023-05-07T13:57:38;3.28;;;1.98;;
9496;SDS011;4786;51.270;4.456;2023-05-07T14:00:04;4.35;;;2.50;;
9496;SDS011;4786;51.270;4.456;2023-05-07T14:02:32;2.90;;;2.13;;
9496;SDS011;4786;51.270;4.456;2023-05-07T14:04:57;5.07;;;2.13;;
9496;SDS011;4786;51.270;4.456;2023-05-07T14:07:23;3.17;;;2.03;;
9496;SDS011;4786;51.270;4.456;2023-05-07T14:09:50;3.53;;;2.33;;
9496;SDS011;4786;51.270;4.456;2023-05-07T14:12:16;3.47;;;2.00;;
9496;SDS011;4786;51.270;4.456;2023-05-07T14:14:42;3.45;;;1.98;;
9496;SDS011;4786;51.270;4.456;2023-05-07T14:17:08;2.85;;;1.98;;
9496;SDS011;4786;51.270;4.456;2023-05-07T14:19:33;4.82;;;2.10;;
9496;SDS011;4786;51.270;4.456;2023-05-07T14:21:59;4.10;;;2.20;;
9496;SDS011;4786;51.270;4.456;2023-05-07T14:24:25;4.72;;;2.50;;
9496;SDS011;4786;51.270;4.456;2023-05-07T14:26:51;3.38;;;2.25;;
9496;SDS011;4786;51.270;4.456;2023-05-07T14:29:18;3.63;;;2.50;;
9496;SDS011;4786;51.270;4.456;2023-05-07T14:31:44;3.20;;;2.05;;
9496;SDS011;4786;51.270;4.456;2023-05-07T14:34:10;3.60;;;2.45;;
9496;SDS011;4786;51.270;4.456;2023-05-07T14:36:36;4.32;;;2.67;;
9496;SDS011;4786;51.270;4.456;2023-05-07T14:39:03;7.30;;;2.88;;
9496;SDS011;4786;51.270;4.456;2023-05-07T14:41:29;4.18;;;2.78;;
9496;SDS011;4786;51.270;4.456;2023-05-07T14:43:55;4.80;;;3.20;;
9496;SDS011;4786;51.270;4.456;2023-05-07T14:46:21;4.95;;;2.70;;
9496;SDS011;4786;51.270;4.456;2023-05-07T14:48:47;6.28;;;2.65;;
9496;SDS011;4786;51.270;4.456;2023-05-07T14:51:13;3.63;;;2.65;;
9496;SDS011;4786;51.270;4.456;2023-05-07T14:53:42;5.00;;;2.50;;
9496;SDS011;4786;51.270;4.456;2023-05-07T14:56:08;4.22;;;2.72;;
9496;SDS011;4786;51.270;4.456;2023-05-07T14:58:34;3.65;;;2.30;;
9496;SDS011;4786;51.270;4.456;2023-05-07T15:01:00;3.47;;;2.60;;
9496;SDS011;4786;51.270;4.456;2023-05-07T15:03:26;4.15;;;2.83;;
9496;SDS011;4786;51.270;4.456;2023-05-07T15:05:53;4.72;;;2.25;;
9496;SDS011;4786;51.270;4.456;2023-05-07T15:08:19;3.83;;;2.58;;
9496;SDS011;4786;51.270;4.456;2023-05-07T15:10:46;4.70;;;2.70;;
9496;SDS011;4786;51.270;4.456;2023-05-07T15:13:12;3.88;;;2.60;;
9496;SDS011;4786;51.270;4.456;2023-05-07T15:15:38;4.05;;;2.50;;
9496;SDS011;4786;51.270;4.456;2023-05-07T15:18:04;4.03;;;2.67;;
9496;SDS011;4786;51.270;4.456;2023-05-07T15:20:30;3.47;;;2.38;;
9496;SDS011;4786;51.270;4.456;2023-05-07T15:22:56;3.53;;;2.10;;
9496;SDS011;4786;51.270;4.456;2023-05-07T15:25:23;3.45;;;2.35;;
9496;SDS011;4786;51.270;4.456;2023-05-07T15:27:49;3.15;;;2.38;;
9496;SDS011;4786;51.270;4.456;2023-05-07T15:30:15;4.05;;;2.33;;
9496;SDS011;4786;51.270;4.456;2023-05-07T15:32:41;2.40;;;1.80;;
9496;SDS011;4786;51.270;4.456;2023-05-07T15:35:07;2.65;;;1.80;;
9496;SDS011;4786;51.270;4.456;2023-05-07T15:37:35;8.45;;;2.45;;